Time;durP1;ratioP1;P1;durP2;ratioP2;P2;SDS_P1;SDS_P2;PMS_P1;PMS_P2;Temp;Humidity;BMP_temperature;BMP_pressure;BME280_temperature;BME280_humidity;BME280_pressure;Samples;Min_cycle;Max_cycle;Signal;HPM_P1;HPM_P2
2022/09/15 00:00:07;;;;;;;3.00;1.20;;;;;;;20.86;58.04;97958.91;5051308;28;20607;-52
2022/09/15 00:02:33;;;;;;;3.33;1.10;;;;;;;20.83;58.00;97951.38;5051555;28;20157;-52
2022/09/15 00:04:58;;;;;;;1.50;1.40;;;;;;;20.90;58.20;97957.56;5051399;28;20203;-52
2022/09/15 00:07:23;;;;;;;1.65;1.33;;;;;;;20.91;58.24;97964.47;5051758;28;20193;-53
2022/09/15 00:09:49;;;;;;;1.73;1.35;;;;;;;20.93;58.18;97962.50;5054823;28;20201;-53
2022/09/15 00:12:14;;;;;;;2.25;1.25;;;;;;;20.88;58.16;97970.06;5054829;28;20531;-52
2022/09/15 00:14:40;;;;;;;2.28;1.38;;;;;;;20.91;57.68;97969.72;5054820;28;20173;-53
2022/09/15 00:17:05;;;;;;;1.23;1.13;;;;;;;20.86;57.68;97962.34;5054987;28;20196;-53
2022/09/15 00:19:31;;;;;;;4.13;1.20;;;;;;;20.82;58.29;97962.91;5054693;28;20536;-52
2022/09/15 00:21:56;;;;;;;2.60;1.48;;;;;;;20.76;58.18;97967.03;5054631;28;20211;-52
2022/09/15 00:24:21;;;;;;;1.25;1.15;;;;;;;20.71;58.60;97964.16;5054587;28;20177;-53
2022/09/15 00:26:47;;;;;;;1.20;1.10;;;;;;;20.72;58.96;97965.78;5054592;28;20177;-53
2022/09/15 00:29:12;;;;;;;1.67;1.58;;;;;;;20.65;59.45;97958.78;5054405;28;20213;-52
2022/09/15 00:31:37;;;;;;;2.85;1.55;;;;;;;20.58;60.51;97950.78;5054396;28;20216;-52
2022/09/15 00:34:03;;;;;;;3.00;1.38;;;;;;;20.65;59.59;97957.00;5054429;28;20652;-53
2022/09/15 00:36:30;;;;;;;4.38;1.50;;;;;;;20.66;59.16;97963.88;5054416;28;20662;-52
2022/09/15 00:38:56;;;;;;;1.25;1.08;;;;;;;20.72;58.87;97957.06;5054354;28;20188;-52
2022/09/15 00:41:23;;;;;;;2.65;1.42;;;;;;;20.73;58.66;97953.44;5054485;28;20575;-53
2022/09/15 00:44:03;;;;;;;1.77;1.05;;;;;;;20.68;58.78;97959.25;5054244;28;20184;-52
2022/09/15 00:46:38;;;;;;;1.10;1.02;;;;;;;20.76;58.33;97950.47;5054607;28;20173;-52
2022/09/15 00:49:25;;;;;;;1.15;1.08;;;;;;;20.72;58.33;97943.94;5054231;28;20244;-53
2022/09/15 00:52:25;;;;;;;3.67;1.20;;;;;;;20.74;58.13;97937.50;5054449;28;20158;-52
2022/09/15 00:54:57;;;;;;;1.40;1.30;;;;;;;20.71;58.09;97927.34;5053800;28;20185;-53
2022/09/15 00:57:28;;;;;;;3.20;1.20;;;;;;;20.71;58.03;97935.25;5054270;28;20188;-52
2022/09/15 00:59:56;;;;;;;1.20;1.10;;;;;;;20.53;58.07;97899.75;5054118;28;20169;-52
2022/09/15 01:02:25;;;;;;;1.30;1.20;;;;;;;20.77;57.91;97915.28;5053785;28;20673;-52
2022/09/15 01:04:52;;;;;;;1.00;0.80;;;;;;;20.77;57.76;97910.84;5053905;28;20189;-52
2022/09/15 01:07:26;;;;;;;1.42;1.33;;;;;;;20.83;57.08;97909.28;5053749;28;20193;-52
2022/09/15 01:09:55;;;;;;;2.50;1.35;;;;;;;20.91;57.25;97917.94;5053997;28;20650;-52
2022/09/15 01:12:23;;;;;;;1.52;1.00;;;;;;;20.97;57.24;97916.44;5053681;28;20173;-53
2022/09/15 01:14:48;;;;;;;4.15;1.17;;;;;;;20.98;57.03;97920.69;5053773;28;20590;-53
2022/09/15 01:17:38;;;;;;;2.83;0.95;;;;;;;20.95;57.43;97929.75;5053623;28;20173;-53
2022/09/15 01:20:22;;;;;;;3.05;1.20;;;;;;;20.90;57.60;97932.09;5052496;28;20645;-53
2022/09/15 01:23:05;;;;;;;2.00;0.98;;;;;;;20.81;57.74;97916.56;5053559;28;20708;-52
2022/09/15 01:26:15;;;;;;;1.65;1.10;;;;;;;20.74;57.72;97920.91;5053463;28;20186;-53
2022/09/15 01:29:18;;;;;;;2.78;1.60;;;;;;;20.62;58.51;97938.94;5053407;28;20780;-52
2022/09/15 01:34:48;;;;;;;1.40;1.17;;;;;;;20.49;58.66;97922.13;5053677;28;20164;-52
2022/09/15 01:37:21;;;;;;;1.23;1.10;;;;;;;20.42;58.83;97921.22;5053373;28;20307;-52
2022/09/15 01:39:51;;;;;;;3.38;1.30;;;;;;;20.51;58.50;97931.47;5053236;28;20543;-52
2022/09/15 01:42:18;;;;;;;1.23;1.10;;;;;;;20.49;58.72;97928.22;5053103;28;20221;-52
2022/09/15 01:44:48;;;;;;;2.58;1.10;;;;;;;20.48;58.55;97921.34;5053345;28;20188;-52
2022/09/15 01:47:18;;;;;;;1.33;1.20;;;;;;;20.49;58.94;97917.69;5053150;28;20161;-52
2022/09/15 01:50:04;;;;;;;1.17;1.17;;;;;;;20.36;58.60;97901.72;5053176;28;20298;-52
2022/09/15 01:52:31;;;;;;;2.33;1.23;;;;;;;20.44;58.76;97922.66;5053121;28;20196;-53
2022/09/15 01:55:01;;;;;;;1.13;1.02;;;;;;;20.50;58.50;97913.25;5052857;28;20188;-52
2022/09/15 01:57:26;;;;;;;2.10;0.90;;;;;;;20.48;58.59;97920.50;5052826;28;20188;-52
2022/09/15 01:59:54;;;;;;;2.15;1.33;;;;;;;20.45;59.13;97920.88;5053062;28;20174;-52
2022/09/15 02:02:27;;;;;;;3.05;1.40;;;;;;;20.43;58.75;97928.09;5052768;28;20177;-52
2022/09/15 02:04:58;;;;;;;2.20;1.60;;;;;;;20.45;59.12;97926.13;5053064;28;20200;-53
2022/09/15 02:07:37;;;;;;;1.70;1.13;;;;;;;20.46;59.12;97930.38;5052833;28;20627;-53
2022/09/15 02:10:19;;;;;;;1.42;1.23;;;;;;;20.34;59.50;97929.97;5052876;28;20201;-53
2022/09/15 02:12:50;;;;;;;3.53;1.17;;;;;;;20.29;59.55;97918.38;5052832;28;20655;-52
2022/09/15 02:15:27;;;;;;;1.10;1.00;;;;;;;20.37;59.61;97927.00;5052562;28;20183;-53
2022/09/15 02:17:54;;;;;;;2.08;1.10;;;;;;;20.32;59.48;97921.47;5052821;28;20222;-52
2022/09/15 02:20:48;;;;;;;3.25;1.02;;;;;;;20.34;59.58;97929.19;5052577;28;20173;-52
2022/09/15 02:23:25;;;;;;;1.42;1.10;;;;;;;20.30;59.80;97933.16;5052175;28;20193;-52
2022/09/15 02:25:56;;;;;;;4.25;1.20;;;;;;;20.26;59.87;97926.59;5052466;28;20191;-52
2022/09/15 02:28:29;;;;;;;3.42;1.30;;;;;;;20.19;60.38;97925.69;5052517;28;20168;-52
2022/09/15 02:30:57;;;;;;;1.20;1.20;;;;;;;20.18;60.40;97930.13;5052166;28;20200;-52
2022/09/15 02:33:27;;;;;;;1.65;1.25;;;;;;;20.19;60.63;97917.81;5052466;28;20185;-52
2022/09/15 02:35:53;;;;;;;1.20;1.20;;;;;;;20.21;60.83;97921.06;5052352;28;20173;-52
2022/09/15 02:38:18;;;;;;;4.10;1.15;;;;;;;20.16;60.39;97911.09;5052254;28;20181;-53
2022/09/15 02:40:45;;;;;;;1.60;1.10;;;;;;;20.11;60.79;97928.38;5052058;28;20223;-52
2022/09/15 02:43:14;;;;;;;3.05;1.40;;;;;;;20.00;61.44;97915.63;5052093;28;20207;-52
2022/09/15 02:45:40;;;;;;;3.55;1.60;;;;;;;19.98;61.80;97918.41;5052072;28;20203;-52
2022/09/15 02:48:08;;;;;;;1.95;1.40;;;;;;;19.81;62.93;97918.72;5051985;28;20642;-52
2022/09/15 02:50:33;;;;;;;3.80;1.25;;;;;;;19.82;62.70;97926.41;5052203;28;20231;-52
2022/09/15 02:52:59;;;;;;;1.23;1.13;;;;;;;19.82;62.74;97928.22;5052242;28;20211;-52
2022/09/15 02:55:27;;;;;;;1.95;1.40;;;;;;;19.76;62.57;97919.22;5051915;28;20226;-52
2022/09/15 02:57:56;;;;;;;3.22;1.10;;;;;;;19.83;62.47;97924.59;5051935;28;20169;-52
2022/09/15 03:00:22;;;;;;;1.80;1.10;;;;;;;19.80;62.41;97924.94;5052153;28;20275;-52
2022/09/15 03:02:50;;;;;;;4.05;0.98;;;;;;;19.72;62.55;97914.50;5051886;28;20260;-52
2022/09/15 03:05:19;;;;;;;1.45;1.20;;;;;;;19.82;62.71;97925.59;5051677;28;20192;-52
2022/09/15 03:07:44;;;;;;;1.60;1.02;;;;;;;19.82;62.96;97928.22;5051745;28;20249;-53
2022/09/15 03:10:11;;;;;;;3.80;1.23;;;;;;;19.39;63.93;97884.19;5052065;28;20193;-52
2022/09/15 03:12:42;;;;;;;1.38;1.20;;;;;;;19.53;64.28;97912.34;5051745;28;20177;-51
2022/09/15 03:15:10;;;;;;;3.28;1.33;;;;;;;19.53;64.13;97917.56;5051730;28;20664;-52
2022/09/15 03:17:37;;;;;;;2.92;1.90;;;;;;;19.47;63.83;97907.78;5051675;28;20654;-52
2022/09/15 03:20:04;;;;;;;2.95;1.50;;;;;;;19.56;63.64;97917.22;5051695;28;20238;-53
2022/09/15 03:22:29;;;;;;;5.28;1.10;;;;;;;19.67;62.79;97915.03;5051713;28;20181;-52
2022/09/15 03:24:55;;;;;;;5.35;1.33;;;;;;;19.64;62.67;97891.75;5051639;28;20716;-52
2022/09/15 03:27:20;;;;;;;3.00;1.20;;;;;;;19.75;62.36;97922.84;5051696;28;20181;-52
2022/09/15 03:29:45;;;;;;;2.45;1.02;;;;;;;19.83;61.69;97916.72;5051552;28;20197;-52
2022/09/15 03:32:11;;;;;;;1.00;1.00;;;;;;;19.89;61.51;97924.75;5051641;28;20716;-52
2022/09/15 03:34:36;;;;;;;7.50;1.40;;;;;;;19.92;61.12;97918.28;5051597;28;20176;-52
2022/09/15 03:37:02;;;;;;;2.25;1.02;;;;;;;19.98;60.45;97917.59;5051861;28;20234;-52
2022/09/15 03:39:27;;;;;;;1.70;1.20;;;;;;;20.07;60.65;97911.34;5052529;28;20185;-52
2022/09/15 03:41:53;;;;;;;2.65;1.38;;;;;;;20.02;60.93;97908.38;5051749;28;20181;-52
2022/09/15 03:44:18;;;;;;;3.53;1.30;;;;;;;19.93;61.16;97901.56;5053866;28;20202;-53
2022/09/15 03:46:44;;;;;;;2.08;1.08;;;;;;;19.79;61.23;97882.13;5055706;28;20646;-53
2022/09/15 03:49:09;;;;;;;1.80;1.02;;;;;;;19.99;61.13;97909.53;5055338;28;20264;-52
2022/09/15 03:51:34;;;;;;;3.55;1.10;;;;;;;20.05;61.12;97921.19;5055139;28;20255;-52
2022/09/15 03:54:00;;;;;;;1.42;1.33;;;;;;;19.74;61.22;97878.38;5055323;28;20177;-52
2022/09/15 03:56:30;;;;;;;1.88;1.10;;;;;;;19.90;62.18;97915.03;5055654;28;20255;-52
2022/09/15 03:58:56;;;;;;;1.38;1.10;;;;;;;19.86;62.38;97908.50;5055045;28;20181;-52
2022/09/15 04:01:22;;;;;;;4.35;1.50;;;;;;;19.73;62.75;97905.63;5055754;28;20177;-52
2022/09/15 04:03:48;;;;;;;1.40;1.13;;;;;;;19.79;62.80;97920.69;5055254;28;20184;-52
2022/09/15 04:06:14;;;;;;;4.00;1.08;;;;;;;19.78;62.65;97919.88;5055662;28;20646;-52
2022/09/15 04:08:40;;;;;;;2.45;1.20;;;;;;;19.79;62.48;97912.81;5054841;28;20193;-52
2022/09/15 04:11:07;;;;;;;1.33;1.23;;;;;;;19.71;63.00;97910.25;5054806;28;20244;-52
2022/09/15 04:13:33;;;;;;;4.10;1.30;;;;;;;19.73;63.58;97898.59;5055082;28;20173;-52
2022/09/15 04:16:00;;;;;;;2.97;1.40;;;;;;;19.64;63.49;97894.38;5054794;28;20260;-52
2022/09/15 04:18:27;;;;;;;1.75;1.33;;;;;;;19.73;63.37;97908.25;5054763;28;20272;-52
2022/09/15 04:20:53;;;;;;;3.17;1.15;;;;;;;19.78;62.91;97913.81;5054978;28;20238;-52
2022/09/15 04:23:19;;;;;;;2.10;1.10;;;;;;;19.77;62.88;97904.31;5054689;28;20165;-53
2022/09/15 04:25:55;;;;;;;4.90;1.20;;;;;;;19.82;62.51;97907.22;5054629;28;20169;-52
2022/09/15 04:28:21;;;;;;;1.63;1.00;;;;;;;19.84;62.31;97899.97;5054553;28;20638;-52
2022/09/15 04:30:47;;;;;;;1.27;1.10;;;;;;;19.87;62.33;97900.44;5054668;28;20197;-52
2022/09/15 04:33:12;;;;;;;5.82;1.40;;;;;;;19.86;62.38;97905.88;5054701;28;20208;-53
2022/09/15 04:35:38;;;;;;;2.75;1.20;;;;;;;19.91;62.43;97911.41;5054447;28;20173;-53
2022/09/15 04:38:03;;;;;;;2.00;1.10;;;;;;;19.94;62.77;97917.13;5054331;28;20231;-52
2022/09/15 04:40:29;;;;;;;3.15;1.20;;;;;;;19.99;62.29;97924.50;5054349;28;20226;-52
2022/09/15 04:42:54;;;;;;;1.92;1.27;;;;;;;19.87;62.46;97926.69;5054264;28;20256;-52
2022/09/15 04:45:19;;;;;;;1.50;0.95;;;;;;;19.95;62.43;97933.72;5054212;28;20557;-52
2022/09/15 04:47:47;;;;;;;4.35;1.42;;;;;;;19.97;62.81;97937.81;5054406;28;20173;-52
2022/09/15 04:50:12;;;;;;;1.25;1.15;;;;;;;19.96;62.92;97945.84;5054120;28;20193;-52
2022/09/15 04:52:38;;;;;;;2.85;1.13;;;;;;;19.99;63.30;97956.03;5054147;28;20561;-52
2022/09/15 04:55:04;;;;;;;5.32;1.80;;;;;;;19.97;66.26;97965.88;5053889;28;20642;-52
2022/09/15 04:57:29;;;;;;;2.72;2.25;;;;;;;19.90;67.07;97971.00;5054011;28;20165;-52
2022/09/15 04:59:54;;;;;;;5.47;3.30;;;;;;;19.95;68.73;97970.47;5053963;28;20252;-52
2022/09/15 05:02:20;;;;;;;5.72;3.90;;;;;;;19.97;68.87;97973.75;5053950;28;20185;-52
2022/09/15 05:04:47;;;;;;;9.15;3.10;;;;;;;20.00;67.56;97957.66;5053731;28;20181;-52
2022/09/15 05:07:13;;;;;;;7.70;3.55;;;;;;;20.08;68.20;97961.06;5053727;28;20197;-52
2022/09/15 05:09:38;;;;;;;13.65;4.03;;;;;;;20.06;68.69;97957.78;5053959;28;20177;-52
2022/09/15 05:12:04;;;;;;;11.30;3.83;;;;;;;19.90;68.42;97930.78;5053779;28;20645;-52
2022/09/15 05:14:30;;;;;;;8.32;3.65;;;;;;;20.05;69.68;97956.13;5053709;28;20199;-52
2022/09/15 05:16:56;;;;;;;5.32;2.05;;;;;;;20.13;67.29;97950.84;5053644;28;20549;-52
2022/09/15 05:19:21;;;;;;;4.95;1.30;;;;;;;20.29;64.55;97957.78;5053602;28;20172;-52
2022/09/15 05:21:46;;;;;;;5.65;1.80;;;;;;;20.41;62.80;97949.28;5053791;28;20169;-52
2022/09/15 05:24:12;;;;;;;7.45;1.48;;;;;;;20.60;60.93;97940.09;5053547;28;20173;-52
2022/09/15 05:26:37;;;;;;;3.13;1.58;;;;;;;20.73;60.94;97935.03;5053500;28;20646;-52
2022/09/15 05:29:03;;;;;;;3.95;1.08;;;;;;;20.86;60.57;97943.16;5053410;28;20173;-52
2022/09/15 05:31:32;;;;;;;5.95;1.23;;;;;;;20.92;60.31;97935.34;5053568;28;20574;-52
2022/09/15 05:34:00;;;;;;;4.07;1.20;;;;;;;20.96;60.47;97931.38;5053349;28;20563;-52
2022/09/15 05:36:26;;;;;;;5.32;1.42;;;;;;;21.03;60.53;97932.28;5053600;28;20267;-53
2022/09/15 05:38:53;;;;;;;5.13;1.38;;;;;;;21.12;60.05;97940.91;5053216;28;20747;-52
2022/09/15 05:41:18;;;;;;;6.40;1.70;;;;;;;21.09;60.07;97936.00;5053196;28;20650;-52
2022/09/15 05:43:46;;;;;;;3.63;1.30;;;;;;;21.15;60.13;97941.34;5053125;28;20189;-52
2022/09/15 05:46:12;;;;;;;3.45;1.52;;;;;;;21.18;60.36;97951.53;5053359;28;20531;-53
2022/09/15 05:48:38;;;;;;;4.80;1.13;;;;;;;21.25;60.38;97941.06;5053257;28;20239;-51
2022/09/15 05:51:04;;;;;;;6.25;1.50;;;;;;;21.28;60.40;97952.03;5053212;28;20280;-51
2022/09/15 05:53:30;;;;;;;5.80;1.40;;;;;;;21.38;60.24;97947.31;5053207;28;20185;-52
2022/09/15 05:56:03;;;;;;;2.85;1.55;;;;;;;21.43;59.85;97938.88;5053162;28;20207;-52
2022/09/15 05:58:29;;;;;;;4.55;1.30;;;;;;;21.43;59.80;97931.78;5052883;28;20161;-52
2022/09/15 06:00:56;;;;;;;6.75;1.30;;;;;;;21.55;59.48;97927.69;5052858;28;20252;-52
2022/09/15 06:03:22;;;;;;;2.78;1.00;;;;;;;21.59;59.76;97933.38;5053038;28;20560;-52
2022/09/15 06:05:48;;;;;;;2.22;1.30;;;;;;;21.68;59.75;97935.75;5051987;28;20263;-53
2022/09/15 06:08:14;;;;;;;6.18;1.55;;;;;;;21.77;59.47;97924.13;5052593;28;20224;-53
2022/09/15 06:10:40;;;;;;;1.48;1.10;;;;;;;21.84;59.35;97917.09;5052851;28;20197;-52
2022/09/15 06:13:06;;;;;;;3.72;1.13;;;;;;;21.92;59.04;97910.91;5052622;28;20635;-53
2022/09/15 06:15:31;;;;;;;3.83;1.60;;;;;;;22.16;57.49;97916.63;5052539;28;20227;-53
2022/09/15 06:17:57;;;;;;;8.07;1.40;;;;;;;22.28;57.02;97909.81;5052785;28;20169;-53
2022/09/15 06:20:23;;;;;;;4.68;1.70;;;;;;;22.44;56.84;97906.91;5052851;28;20173;-53
2022/09/15 06:22:49;;;;;;;4.82;1.50;;;;;;;22.64;56.31;97904.44;5052690;28;20243;-53
2022/09/15 06:25:14;;;;;;;6.97;1.38;;;;;;;22.84;55.44;97908.81;5052378;28;20602;-53
2022/09/15 06:27:40;;;;;;;3.00;1.45;;;;;;;23.04;54.93;97927.41;5052640;28;20188;-53
2022/09/15 06:30:08;;;;;;;5.10;1.50;;;;;;;23.10;54.66;97931.91;5052460;28;20197;-53
2022/09/15 06:32:35;;;;;;;5.22;1.48;;;;;;;23.24;54.98;97933.66;5052521;28;20248;-53
2022/09/15 06:35:05;;;;;;;4.13;1.85;;;;;;;23.41;56.10;97940.22;5052165;28;20181;-52
2022/09/15 06:37:32;;;;;;;10.95;3.42;;;;;;;23.40;58.23;97944.69;5052512;28;20165;-53
2022/09/15 06:39:57;;;;;;;9.00;4.50;;;;;;;23.42;58.77;97952.44;5052171;28;20169;-53
2022/09/15 06:42:23;;;;;;;9.70;4.40;;;;;;;23.45;58.62;97954.66;5052344;28;20181;-53
2022/09/15 06:44:48;;;;;;;11.65;4.88;;;;;;;23.46;58.95;97949.19;5052097;28;20200;-53
2022/09/15 06:47:14;;;;;;;11.77;4.28;;;;;;;23.48;58.78;97944.53;5052030;28;20693;-53
2022/09/15 06:49:39;;;;;;;9.20;4.18;;;;;;;23.50;58.70;97942.53;5052220;28;20187;-53
2022/09/15 06:52:05;;;;;;;14.43;5.13;;;;;;;23.56;59.00;97938.25;5052209;28;20209;-53
2022/09/15 06:54:31;;;;;;;12.20;4.22;;;;;;;23.60;58.64;97926.28;5052197;28;20230;-53
2022/09/15 06:56:56;;;;;;;8.68;4.57;;;;;;;23.66;59.20;97922.84;5052170;28;20165;-53
2022/09/15 06:59:23;;;;;;;9.85;4.95;;;;;;;23.61;58.24;97925.28;5051914;28;20708;-53
2022/09/15 07:01:52;;;;;;;12.43;4.20;;;;;;;23.57;58.80;97921.38;5051906;28;20218;-53
2022/09/15 07:04:18;;;;;;;9.20;4.40;;;;;;;23.50;58.28;97880.94;5051880;28;20183;-53
2022/09/15 07:06:44;;;;;;;15.77;5.53;;;;;;;23.78;57.93;97914.97;5051605;28;20239;-53
2022/09/15 07:09:09;;;;;;;9.95;4.93;;;;;;;23.83;58.44;97916.19;5052098;28;20177;-53
2022/09/15 07:11:35;;;;;;;14.13;5.38;;;;;;;23.88;58.50;97913.81;5052019;28;20262;-53
2022/09/15 07:14:00;;;;;;;14.63;6.13;;;;;;;23.90;59.27;97914.41;5051818;28;20173;-53
2022/09/15 07:27:25;;;;;;;14.75;5.32;;;;;;;24.37;58.76;97923.81;5056739;28;20169;-53
2022/09/15 07:29:51;;;;;;;18.15;4.18;;;;;;;24.42;58.25;97915.25;5055480;28;20184;-53
2022/09/15 07:32:16;;;;;;;10.32;4.30;;;;;;;24.53;57.66;97915.47;5055604;28;20657;-53
2022/09/15 07:34:41;;;;;;;10.70;4.10;;;;;;;24.69;57.50;97922.22;5055595;28;20179;-53
2022/09/15 07:37:07;;;;;;;11.68;3.83;;;;;;;24.83;56.47;97927.28;5055843;28;20646;-53
2022/09/15 07:39:32;;;;;;;16.13;4.10;;;;;;;24.98;56.44;97933.16;5055822;28;20619;-53
2022/09/15 07:41:58;;;;;;;10.73;4.00;;;;;;;25.08;56.32;97922.94;5055486;28;20681;-53
2022/09/15 07:44:23;;;;;;;8.32;3.38;;;;;;;25.22;55.90;97924.53;5055433;28;20173;-53
2022/09/15 07:46:49;;;;;;;8.00;3.28;;;;;;;25.31;55.23;97917.22;5055395;28;20173;-53
2022/09/15 07:49:15;;;;;;;6.28;3.33;;;;;;;25.40;54.32;97915.94;5055341;28;20560;-53
2022/09/15 07:51:41;;;;;;;12.07;3.70;;;;;;;25.53;52.79;97915.88;5055231;28;20197;-54
2022/09/15 07:54:07;;;;;;;13.25;3.53;;;;;;;25.63;53.10;97911.78;5055233;28;20181;-53
2022/09/15 07:56:33;;;;;;;11.13;1.73;;;;;;;25.79;51.23;97905.16;5055175;28;20186;-53
2022/09/15 07:58:58;;;;;;;6.80;1.77;;;;;;;25.97;50.56;97913.25;5055134;28;20175;-53
2022/09/15 08:01:24;;;;;;;4.88;1.55;;;;;;;26.14;49.90;97917.81;5055132;28;20193;-53
2022/09/15 08:03:51;;;;;;;5.53;1.30;;;;;;;26.24;49.88;97930.59;5055047;28;20563;-53
2022/09/15 08:06:18;;;;;;;7.30;1.38;;;;;;;26.37;49.33;97926.00;5053575;28;20650;-53
2022/09/15 08:08:44;;;;;;;7.00;1.75;;;;;;;26.46;49.22;97932.66;5054989;28;20176;-53
2022/09/15 08:11:13;;;;;;;5.28;1.75;;;;;;;26.48;49.05;97919.97;5055049;28;20231;-53
2022/09/15 08:13:38;;;;;;;3.40;1.60;;;;;;;26.59;49.04;97932.59;5054859;28;20211;-53
2022/09/15 08:16:15;;;;;;;5.47;2.65;;;;;;;26.67;49.09;97931.50;5054783;28;20177;-53
2022/09/15 08:18:42;;;;;;;7.60;2.17;;;;;;;26.76;49.20;97931.00;5054924;28;20165;-53
2022/09/15 08:21:27;;;;;;;9.77;2.63;;;;;;;26.84;49.04;97937.88;5054875;28;20174;-53
2022/09/15 08:23:54;;;;;;;3.85;1.92;;;;;;;26.90;48.14;97937.00;5054758;28;20154;-53
2022/09/15 08:26:20;;;;;;;5.82;1.95;;;;;;;26.92;47.74;97941.06;5054650;28;20173;-53
2022/09/15 08:28:47;;;;;;;3.85;2.10;;;;;;;26.94;47.46;97924.94;5054323;28;20185;-53
2022/09/15 08:31:13;;;;;;;3.92;2.15;;;;;;;27.00;47.12;97938.13;5054563;28;20201;-53
2022/09/15 08:33:39;;;;;;;8.07;2.35;;;;;;;27.07;46.60;97933.56;5054470;28;20291;-53
2022/09/15 08:36:10;;;;;;;10.02;2.40;;;;;;;27.09;47.29;97926.19;5054642;28;20248;-54
2022/09/15 08:38:38;;;;;;;5.53;2.20;;;;;;;27.13;46.97;97932.69;5054419;28;20640;-53
2022/09/15 08:41:15;;;;;;;5.93;2.00;;;;;;;27.13;47.11;97927.38;5054423;28;20203;-53
2022/09/15 08:43:51;;;;;;;9.95;2.65;;;;;;;27.18;47.06;97935.50;5054403;28;20212;-53
2022/09/15 08:46:25;;;;;;;6.93;2.28;;;;;;;27.15;47.10;97930.63;5054587;28;20656;-53
2022/09/15 08:49:00;;;;;;;8.88;2.28;;;;;;;27.25;47.35;97948.72;5054555;28;20161;-53
2022/09/15 08:51:55;;;;;;;5.55;2.22;;;;;;;27.26;47.28;97937.88;5054386;28;20184;-53
2022/09/15 08:54:32;;;;;;;5.45;2.90;;;;;;;27.34;47.23;97942.91;5053762;28;20185;-53
2022/09/15 08:56:59;;;;;;;5.45;2.75;;;;;;;27.34;47.18;97948.22;5054335;28;20180;-53
2022/09/15 08:59:31;;;;;;;7.75;3.03;;;;;;;27.41;47.11;97951.59;5054227;28;20244;-53
2022/09/15 09:02:06;;;;;;;7.05;3.10;;;;;;;27.44;47.00;97943.19;5053963;28;20657;-54
2022/09/15 09:04:46;;;;;;;4.93;2.80;;;;;;;27.44;47.69;97953.00;5053854;28;20168;-53
2022/09/15 09:07:27;;;;;;;11.48;3.28;;;;;;;27.45;47.60;97942.16;5053939;28;20768;-53
2022/09/15 09:10:00;;;;;;;12.98;2.88;;;;;;;27.47;48.25;97942.72;5053899;28;20165;-53
2022/09/15 09:12:34;;;;;;;19.08;3.63;;;;;;;27.52;48.32;97937.56;5054111;28;20574;-53
2022/09/15 09:15:14;;;;;;;7.07;3.15;;;;;;;27.55;47.87;97937.13;5053750;28;20161;-53
2022/09/15 09:17:53;;;;;;;8.25;2.85;;;;;;;27.64;48.28;97935.00;5053736;28;20616;-53
2022/09/15 09:20:28;;;;;;;9.65;2.50;;;;;;;27.73;48.67;97934.44;5053890;28;20168;-53
2022/09/15 09:22:55;;;;;;;13.93;3.10;;;;;;;27.81;48.14;97936.03;5053911;28;20168;-53
2022/09/15 09:25:21;;;;;;;10.98;3.15;;;;;;;27.85;47.99;97923.88;5053675;28;20252;-53
2022/09/15 09:27:47;;;;;;;11.43;3.08;;;;;;;27.93;48.33;97918.25;5053551;28;20621;-53
2022/09/15 09:30:19;;;;;;;13.50;3.13;;;;;;;27.95;48.57;97919.66;5053375;28;20200;-54
2022/09/15 09:32:50;;;;;;;14.65;3.80;;;;;;;28.08;48.04;97927.44;5053404;28;20187;-54
2022/09/15 09:35:37;;;;;;;10.52;4.30;;;;;;;28.10;47.98;97928.00;5053336;28;20249;-53
2022/09/15 09:38:03;;;;;;;18.05;5.18;;;;;;;28.16;49.54;97921.00;5053796;28;20540;-53
2022/09/15 09:40:30;;;;;;;19.35;4.32;;;;;;;28.15;48.69;97920.16;5052569;28;20173;-53
2022/09/15 09:42:56;;;;;;;21.13;4.60;;;;;;;28.24;48.13;97910.84;5053146;28;20649;-53
2022/09/15 09:45:22;;;;;;;15.68;4.00;;;;;;;28.28;48.72;97906.66;5053149;28;20176;-53
2022/09/15 09:47:48;;;;;;;15.70;4.07;;;;;;;28.36;48.02;97909.00;5053374;28;20176;-53
2022/09/15 09:50:46;;;;;;;12.38;3.78;;;;;;;28.44;48.30;97902.53;5052946;28;20284;-53
2022/09/15 09:53:32;;;;;;;12.20;3.72;;;;;;;28.51;47.86;97900.59;5051988;28;20280;-53
2022/09/15 09:56:25;;;;;;;12.75;4.13;;;;;;;28.60;47.43;97904.53;5053205;28;20189;-53
2022/09/15 09:58:53;;;;;;;15.68;3.83;;;;;;;28.58;45.35;97893.31;5053224;28;20165;-54
2022/09/15 10:01:22;;;;;;;13.40;4.00;;;;;;;28.76;45.90;97895.84;5052842;28;20165;-53
2022/09/15 10:03:48;;;;;;;11.18;3.92;;;;;;;28.85;45.33;97897.94;5052798;28;20239;-53
2022/09/15 10:06:21;;;;;;;12.40;4.25;;;;;;;28.91;46.03;97891.66;5052567;28;20204;-53
2022/09/15 10:08:58;;;;;;;12.63;3.90;;;;;;;28.98;46.04;97892.38;5052746;28;20172;-54
2022/09/15 10:11:43;;;;;;;13.68;4.03;;;;;;;28.91;45.84;97864.22;5052895;28;20197;-53
2022/09/15 10:14:26;;;;;;;14.23;3.63;;;;;;;29.15;44.85;97879.97;5052798;28;20530;-53
2022/09/15 10:16:57;;;;;;;15.45;4.65;;;;;;;29.23;44.75;97868.94;5052664;28;20158;-53
2022/09/15 10:19:23;;;;;;;14.65;4.18;;;;;;;29.41;45.02;97871.44;5052465;28;20178;-53
2022/09/15 10:21:48;;;;;;;9.48;3.58;;;;;;;29.52;44.03;97867.94;5052490;28;20169;-53
2022/09/15 10:24:25;;;;;;;9.15;3.42;;;;;;;29.68;44.26;97869.84;5052424;28;20177;-53
2022/09/15 10:26:51;;;;;;;8.55;4.03;;;;;;;29.85;43.42;97868.03;5052578;28;20183;-53
2022/09/15 10:29:17;;;;;;;6.43;2.83;;;;;;;29.98;41.86;97859.75;5052331;28;20173;-53
2022/09/15 10:31:44;;;;;;;9.70;3.40;;;;;;;30.10;41.10;97857.84;5052234;28;20200;-53
2022/09/15 10:34:30;;;;;;;9.55;3.15;;;;;;;30.21;40.49;97862.25;5052242;28;20185;-53
2022/09/15 10:37:40;;;;;;;11.18;2.85;;;;;;;30.37;40.73;97850.00;5052071;28;20185;-53
2022/09/15 10:40:35;;;;;;;5.18;2.53;;;;;;;30.63;40.91;97841.28;5051314;28;20275;-53
2022/09/15 10:43:20;;;;;;;9.55;2.55;;;;;;;30.81;39.83;97830.34;5051251;28;20658;-53
2022/09/15 10:45:58;;;;;;;4.90;2.15;;;;;;;31.07;39.23;97830.44;5052117;28;20569;-53
2022/09/15 10:48:47;;;;;;;4.40;1.98;;;;;;;31.27;39.06;97830.72;5052076;28;20165;-53
2022/09/15 10:51:36;;;;;;;7.90;2.13;;;;;;;31.43;37.73;97813.75;5051883;28;20363;-54
2022/09/15 10:54:16;;;;;;;6.80;2.00;;;;;;;31.63;37.77;97819.34;5052304;28;20161;-54
2022/09/15 10:56:47;;;;;;;6.85;2.13;;;;;;;31.80;38.17;97820.06;5052251;28;20186;-54
2022/09/15 10:59:29;;;;;;;6.72;2.08;;;;;;;31.99;36.79;97815.16;5052014;28;20161;-54
2022/09/15 11:02:00;;;;;;;5.15;1.75;;;;;;;32.11;35.64;97821.16;5051944;28;20172;-54
2022/09/15 11:05:03;;;;;;;8.15;1.60;;;;;;;32.24;35.16;97813.50;5052047;28;20565;-55
2022/09/15 11:08:08;;;;;;;8.90;1.55;;;;;;;32.32;33.09;97813.03;5050721;28;20587;-52
2022/09/15 11:10:47;;;;;;;3.25;1.38;;;;;;;32.41;32.81;97816.03;5051890;28;20661;-52
2022/09/15 11:13:35;;;;;;;11.05;1.70;;;;;;;32.53;34.04;97814.75;5051845;28;20157;-53
2022/09/15 11:16:06;;;;;;;5.85;1.42;;;;;;;32.59;33.90;97808.38;5051978;28;20165;-53
2022/09/15 11:18:43;;;;;;;5.28;1.52;;;;;;;32.72;33.72;97801.75;5052064;28;20180;-53
2022/09/15 11:21:28;;;;;;;3.20;1.35;;;;;;;32.80;31.68;97810.13;5050495;28;20673;-53
2022/09/15 11:24:28;;;;;;;1.85;1.23;;;;;;;32.82;32.45;97802.63;5051839;28;20177;-53
2022/09/15 11:27:00;;;;;;;2.53;1.30;;;;;;;33.00;31.53;97815.56;5051692;28;20173;-52
2022/09/15 11:29:38;;;;;;;3.72;1.15;;;;;;;33.07;31.76;97816.16;5051979;28;20245;-53
2022/09/15 11:32:12;;;;;;;5.80;1.58;;;;;;;33.22;32.70;97802.78;5051610;28;20681;-53
2022/09/15 11:34:51;;;;;;;4.38;1.52;;;;;;;33.30;33.20;97788.94;5051676;28;20214;-53
2022/09/15 11:37:37;;;;;;;6.22;1.65;;;;;;;33.41;32.33;97795.91;5051693;28;20200;-54
2022/09/15 11:40:19;;;;;;;5.05;1.73;;;;;;;33.50;32.54;97794.31;5051753;28;20248;-53
2022/09/15 11:42:59;;;;;;;5.25;1.52;;;;;;;33.60;32.90;97797.03;5051662;28;20542;-53
2022/09/15 11:45:31;;;;;;;2.13;1.38;;;;;;;33.70;33.22;97798.91;5051705;28;20633;-54
2022/09/15 11:48:27;;;;;;;6.20;1.95;;;;;;;33.68;31.59;97784.97;5051620;28;20634;-54
2022/09/15 11:50:57;;;;;;;3.38;1.33;;;;;;;33.70;30.17;97797.03;5051700;28;20211;-54
2022/09/15 11:53:30;;;;;;;4.18;1.45;;;;;;;33.83;31.36;97783.13;5051723;28;20565;-54
2022/09/15 11:56:10;;;;;;;8.15;1.88;;;;;;;33.82;31.26;97769.97;5051389;28;20169;-54
2022/09/15 11:58:51;;;;;;;2.38;1.40;;;;;;;33.84;30.98;97774.00;5051693;28;20175;-54
2022/09/15 12:01:21;;;;;;;4.05;1.25;;;;;;;33.84;30.56;97765.13;5051533;28;20215;-54